createdAt,value
2017-09-30T00:02:42.597Z,1010.40
2017-09-30T00:07:38.286Z,1010.47
2017-09-30T00:12:34.191Z,1010.49
2017-09-30T00:17:30.094Z,1010.37
2017-09-30T00:22:25.955Z,1010.38
2017-09-30T00:27:22.684Z,1010.40
2017-09-30T00:32:19.298Z,1010.43
2017-09-30T00:37:16.371Z,1010.42
2017-09-30T00:42:13.016Z,1010.44
2017-09-30T00:47:09.654Z,1010.41
2017-09-30T00:52:06.409Z,1010.45
2017-09-30T00:57:02.029Z,1010.42
2017-09-30T01:01:57.830Z,1010.45
2017-09-30T01:06:54.524Z,1010.50
2017-09-30T01:11:49.917Z,1010.45
2017-09-30T01:16:45.756Z,1010.42
2017-09-30T01:21:41.496Z,1010.83
2017-09-30T01:26:37.176Z,1010.96
2017-09-30T01:31:34.390Z,1011.09
2017-09-30T01:36:29.841Z,1011.13
2017-09-30T01:41:26.359Z,1011.22
2017-09-30T01:46:22.495Z,1011.08
2017-09-30T01:51:18.316Z,1010.96
2017-09-30T01:56:15.704Z,1010.83
2017-09-30T02:01:12.163Z,1010.86
2017-09-30T02:06:07.863Z,1010.79
2017-09-30T02:11:03.475Z,1010.65
2017-09-30T02:15:59.202Z,1010.80
2017-09-30T02:20:55.134Z,1010.83
2017-09-30T02:25:50.872Z,1010.93
2017-09-30T02:30:46.457Z,1010.93
2017-09-30T02:35:42.277Z,1010.86
2017-09-30T02:40:38.116Z,1010.84
2017-09-30T02:45:34.377Z,1010.68
2017-09-30T02:50:30.947Z,1010.61
2017-09-30T02:55:26.722Z,1010.60
2017-09-30T03:00:22.426Z,1010.66
2017-09-30T03:05:19.346Z,1010.68
2017-09-30T03:10:14.782Z,1010.57
2017-09-30T03:15:10.981Z,1010.39
2017-09-30T03:20:07.023Z,1010.28
2017-09-30T03:25:02.757Z,1010.43
2017-09-30T03:29:59.716Z,1010.28
2017-09-30T03:34:55.308Z,1010.36
2017-09-30T03:39:50.954Z,1010.52
2017-09-30T03:44:47.854Z,1010.48
2017-09-30T03:49:43.352Z,1010.51
2017-09-30T03:54:39.150Z,1010.27
2017-09-30T03:59:34.870Z,1010.15
2017-09-30T04:04:31.973Z,1010.01
2017-09-30T04:09:27.624Z,1010.02
2017-09-30T04:14:23.354Z,1010.09
2017-09-30T04:19:19.201Z,1009.93
2017-09-30T04:24:15.356Z,1009.83
2017-09-30T04:29:12.339Z,1009.81
2017-09-30T04:34:07.855Z,1009.80
2017-09-30T04:39:04.052Z,1009.79
2017-09-30T04:43:59.908Z,1009.70
2017-09-30T04:48:55.579Z,1009.45
2017-09-30T04:53:51.358Z,1009.42
2017-09-30T04:58:47.251Z,1009.38
2017-09-30T05:03:43.037Z,1009.63
2017-09-30T05:08:39.018Z,1009.53
2017-09-30T05:13:34.429Z,1009.52
2017-09-30T05:18:30.454Z,1009.67
2017-09-30T05:23:26.437Z,1009.55
2017-09-30T05:28:22.233Z,1009.69
2017-09-30T05:33:18.607Z,1009.70
2017-09-30T05:38:14.530Z,1009.69
2017-09-30T05:43:10.303Z,1009.78
2017-09-30T05:48:06.087Z,1009.83
2017-09-30T05:53:02.000Z,1009.88
2017-09-30T05:57:57.745Z,1009.92
2017-09-30T06:02:53.661Z,1009.76
2017-09-30T06:07:50.059Z,1009.88
2017-09-30T06:12:45.918Z,1009.75
2017-09-30T06:17:42.838Z,1009.80
2017-09-30T06:22:39.723Z,1009.84
2017-09-30T06:27:35.232Z,1009.67
2017-09-30T06:32:31.040Z,1009.71
2017-09-30T06:37:27.048Z,1009.71
2017-09-30T06:42:23.829Z,1009.70
2017-09-30T06:47:20.532Z,1009.59
2017-09-30T06:52:16.022Z,1009.62
2017-09-30T06:57:11.930Z,1009.59
2017-09-30T07:02:08.045Z,1009.60
2017-09-30T07:07:04.333Z,1009.58
2017-09-30T07:12:00.369Z,1009.63
2017-09-30T07:16:56.516Z,1009.47
2017-09-30T07:21:53.203Z,1009.45
2017-09-30T07:26:50.247Z,1009.41
2017-09-30T07:31:46.053Z,1009.49
2017-09-30T07:36:41.787Z,1009.56
2017-09-30T07:41:37.651Z,1009.56
2017-09-30T07:46:33.415Z,1009.55
2017-09-30T07:51:29.332Z,1009.46
2017-09-30T07:56:25.533Z,1009.48
2017-09-30T08:01:21.124Z,1009.28
2017-09-30T08:06:17.005Z,1009.31
2017-09-30T08:11:13.239Z,1009.37
2017-09-30T08:16:10.152Z,1009.41
2017-09-30T08:21:05.729Z,1009.29
2017-09-30T08:26:02.592Z,1009.31
2017-09-30T08:30:58.319Z,1009.36
2017-09-30T08:35:54.379Z,1009.33
2017-09-30T08:40:51.703Z,1009.30
2017-09-30T08:45:48.240Z,1009.30
2017-09-30T08:50:44.242Z,1009.32
2017-09-30T08:55:41.420Z,1009.26
2017-09-30T09:00:37.124Z,1009.29
2017-09-30T09:05:32.726Z,1009.17
2017-09-30T09:10:28.483Z,1009.13
2017-09-30T09:15:24.359Z,1009.08
2017-09-30T09:20:20.165Z,1009.06
2017-09-30T09:25:16.149Z,1008.96
2017-09-30T09:30:12.252Z,1008.99
2017-09-30T09:35:08.121Z,1008.90
2017-09-30T09:40:05.175Z,1008.83
2017-09-30T09:45:00.906Z,1008.83
2017-09-30T09:49:59.087Z,1008.78
2017-09-30T09:54:54.670Z,1008.69
2017-09-30T09:59:51.729Z,1008.76
2017-09-30T10:04:48.538Z,1008.65
2017-09-30T10:09:44.103Z,1008.54
2017-09-30T10:14:39.989Z,1008.49
2017-09-30T10:19:36.621Z,1008.45
2017-09-30T10:24:33.127Z,1008.47
2017-09-30T10:29:29.002Z,1008.43
2017-09-30T10:34:25.042Z,1008.47
2017-09-30T10:39:22.255Z,1008.40
2017-09-30T10:44:18.136Z,1008.36
2017-09-30T10:49:14.279Z,1008.42
2017-09-30T10:54:10.130Z,1008.30
2017-09-30T10:59:05.710Z,1008.25
2017-09-30T11:04:01.778Z,1008.23
2017-09-30T11:08:58.243Z,1008.19
2017-09-30T11:13:53.975Z,1008.12
2017-09-30T11:18:50.592Z,1008.09
2017-09-30T11:23:46.165Z,1008.07
2017-09-30T11:28:43.060Z,1008.12
2017-09-30T11:33:38.334Z,1008.13
2017-09-30T11:38:34.916Z,1007.99
2017-09-30T11:43:31.069Z,1007.86
2017-09-30T11:48:27.334Z,1007.91
2017-09-30T11:53:23.247Z,1007.93
2017-09-30T11:58:20.894Z,1007.76
2017-09-30T12:03:16.278Z,1007.59
2017-09-30T12:08:13.227Z,1007.62
2017-09-30T12:13:08.931Z,1007.65
2017-09-30T12:18:06.310Z,1007.49
2017-09-30T12:23:02.218Z,1007.48
2017-09-30T12:27:57.830Z,1007.43
2017-09-30T12:32:53.617Z,1007.49
2017-09-30T12:37:51.254Z,1007.61
2017-09-30T12:42:47.221Z,1007.78
2017-09-30T12:47:42.490Z,1007.70
2017-09-30T12:52:38.256Z,1007.83
2017-09-30T12:57:34.299Z,1007.87
2017-09-30T13:02:29.902Z,1007.93
2017-09-30T13:07:25.490Z,1008.01
2017-09-30T13:12:20.910Z,1008.18
2017-09-30T13:17:17.957Z,1008.25
2017-09-30T13:22:14.878Z,1008.17
2017-09-30T13:27:10.783Z,1008.42
2017-09-30T13:32:06.277Z,1008.42
2017-09-30T13:37:02.726Z,1008.54
2017-09-30T13:41:59.108Z,1008.68
2017-09-30T13:46:55.525Z,1008.59
2017-09-30T13:51:51.136Z,1008.74
2017-09-30T13:56:48.280Z,1008.82
2017-09-30T14:01:44.715Z,1009.10
2017-09-30T14:06:40.465Z,1009.04
2017-09-30T14:11:36.770Z,1008.87
2017-09-30T14:16:33.415Z,1008.88
2017-09-30T14:21:29.819Z,1009.01
2017-09-30T14:26:25.532Z,1009.16
2017-09-30T14:31:21.313Z,1009.40
2017-09-30T14:36:17.699Z,1009.38
2017-09-30T14:41:13.445Z,1009.37
2017-09-30T14:46:10.053Z,1009.30
2017-09-30T14:51:05.988Z,1009.39
2017-09-30T14:56:01.817Z,1009.47
2017-09-30T15:00:57.627Z,1009.68
2017-09-30T15:05:53.541Z,1009.74
2017-09-30T15:10:50.522Z,1009.72
2017-09-30T15:15:46.218Z,1009.83
2017-09-30T15:20:42.960Z,1009.96
2017-09-30T15:25:38.746Z,1010.02
2017-09-30T15:30:35.956Z,1010.00
2017-09-30T15:35:32.634Z,1009.91
2017-09-30T15:40:28.105Z,1009.86
2017-09-30T15:45:23.982Z,1009.79
2017-09-30T15:50:20.864Z,1009.75
2017-09-30T15:55:16.551Z,1009.91
2017-09-30T16:00:12.407Z,1010.03
2017-09-30T16:05:09.559Z,1010.09
2017-09-30T16:10:05.049Z,1010.22
2017-09-30T16:15:01.920Z,1010.21
2017-09-30T16:19:57.345Z,1010.28
2017-09-30T16:24:54.242Z,1010.32
2017-09-30T16:29:50.634Z,1010.38
2017-09-30T16:34:46.265Z,1010.47
2017-09-30T16:39:42.081Z,1010.53
2017-09-30T16:44:37.862Z,1010.63
2017-09-30T16:49:33.902Z,1010.59
2017-09-30T16:54:30.639Z,1010.74
2017-09-30T16:59:28.331Z,1010.77
2017-09-30T17:04:24.975Z,1010.77
2017-09-30T17:09:24.715Z,1010.85
2017-09-30T17:14:19.608Z,1010.93
2017-09-30T17:19:15.593Z,1010.93
2017-09-30T17:24:11.480Z,1010.95
2017-09-30T17:29:07.173Z,1010.99
2017-09-30T17:34:04.028Z,1010.99
2017-09-30T17:38:59.527Z,1011.06
2017-09-30T17:43:55.466Z,1011.09
2017-09-30T17:48:51.069Z,1011.13
2017-09-30T17:53:47.075Z,1011.15
2017-09-30T17:58:43.907Z,1011.15
2017-09-30T18:03:39.473Z,1011.13
2017-09-30T18:08:35.220Z,1011.27
2017-09-30T18:13:30.901Z,1011.17
2017-09-30T18:18:27.122Z,1011.34
2017-09-30T18:23:22.984Z,1011.28
2017-09-30T18:28:18.592Z,1011.32
2017-09-30T18:33:18.388Z,1011.44
2017-09-30T18:38:14.126Z,1011.51
2017-09-30T18:43:09.790Z,1011.56
2017-09-30T18:48:06.474Z,1011.61
2017-09-30T18:53:03.012Z,1011.42
2017-09-30T18:57:59.076Z,1011.55
2017-09-30T19:02:55.594Z,1011.55
2017-09-30T19:07:51.216Z,1011.53
2017-09-30T19:12:49.089Z,1011.59
2017-09-30T19:17:44.103Z,1011.70
2017-09-30T19:22:40.063Z,1011.64
2017-09-30T19:27:35.798Z,1011.76
2017-09-30T19:32:32.465Z,1011.75
2017-09-30T19:37:29.028Z,1011.70
2017-09-30T19:42:24.571Z,1011.78
2017-09-30T19:47:21.592Z,1011.72
2017-09-30T19:52:17.245Z,1011.81
2017-09-30T19:57:13.128Z,1011.80
2017-09-30T20:02:09.001Z,1011.95
2017-09-30T20:07:04.656Z,1012.09
2017-09-30T20:12:00.761Z,1012.06
2017-09-30T20:16:57.712Z,1012.18
2017-09-30T20:21:54.662Z,1012.26
2017-09-30T20:26:51.245Z,1012.29
2017-09-30T20:31:48.305Z,1012.38
2017-09-30T20:36:43.638Z,1012.42
2017-09-30T20:41:41.973Z,1012.39
2017-09-30T20:46:38.143Z,1012.36
2017-09-30T20:51:34.909Z,1012.38
2017-09-30T20:56:30.303Z,1012.29
2017-09-30T21:01:26.135Z,1012.26
2017-09-30T21:06:22.142Z,1012.25
2017-09-30T21:11:20.771Z,1012.40
2017-09-30T21:16:18.091Z,1012.29
2017-09-30T21:21:15.267Z,1012.38
2017-09-30T21:26:10.772Z,1012.39
2017-09-30T21:31:07.123Z,1012.37
2017-09-30T21:36:02.778Z,1012.47
2017-09-30T21:40:59.465Z,1012.40
2017-09-30T21:45:56.759Z,1012.38
2017-09-30T21:50:52.883Z,1012.47
2017-09-30T21:55:48.720Z,1012.46
2017-09-30T22:00:45.478Z,1012.41
2017-09-30T22:05:41.174Z,1012.47
2017-09-30T22:10:38.202Z,1012.42
2017-09-30T22:15:33.106Z,1012.44
2017-09-30T22:20:29.255Z,1012.36
2017-09-30T22:25:25.233Z,1012.39
2017-09-30T22:30:21.449Z,1012.46
2017-09-30T22:35:17.209Z,1012.45
2017-09-30T22:40:14.278Z,1012.43
2017-09-30T22:45:11.067Z,1012.40
2017-09-30T22:50:08.486Z,1012.47
2017-09-30T22:55:04.208Z,1012.40
2017-09-30T23:00:00.743Z,1012.39
2017-09-30T23:04:56.529Z,1012.45
2017-09-30T23:09:55.053Z,1012.45
2017-09-30T23:14:50.240Z,1012.55
2017-09-30T23:19:46.284Z,1012.52
2017-09-30T23:24:41.655Z,1012.57
2017-09-30T23:29:37.580Z,1012.59
2017-09-30T23:34:33.482Z,1012.69
2017-09-30T23:39:30.238Z,1012.71
2017-09-30T23:44:26.892Z,1012.71
2017-09-30T23:49:22.358Z,1012.80
2017-09-30T23:54:17.996Z,1012.80
2017-09-30T23:59:15.213Z,1012.90
